sensor_id;sensor_type;location;lat;lon;timestamp;P1;durP1;ratioP1;P2;durP2;ratioP2
18651;SDS011;9455;54.302;10.124;2024-03-22T00:02:08;22.60;;;9.93;;
18651;SDS011;9455;54.302;10.124;2024-03-22T00:04:34;23.27;;;8.83;;
18651;SDS011;9455;54.302;10.124;2024-03-22T00:07:01;16.87;;;9.50;;
18651;SDS011;9455;54.302;10.124;2024-03-22T00:09:26;24.70;;;9.40;;
18651;SDS011;9455;54.302;10.124;2024-03-22T00:11:53;18.83;;;8.27;;
18651;SDS011;9455;54.302;10.124;2024-03-22T00:14:18;21.70;;;9.37;;
18651;SDS011;9455;54.302;10.124;2024-03-22T00:16:45;21.53;;;8.97;;
18651;SDS011;9455;54.302;10.124;2024-03-22T00:19:12;24.77;;;9.50;;
18651;SDS011;9455;54.302;10.124;2024-03-22T00:21:39;23.80;;;9.33;;
18651;SDS011;9455;54.302;10.124;2024-03-22T00:24:04;23.63;;;9.30;;
18651;SDS011;9455;54.302;10.124;2024-03-22T00:26:31;25.50;;;9.10;;
18651;SDS011;9455;54.302;10.124;2024-03-22T00:28:57;22.37;;;9.33;;
18651;SDS011;9455;54.302;10.124;2024-03-22T00:31:24;20.77;;;8.67;;
18651;SDS011;9455;54.302;10.124;2024-03-22T00:33:49;18.60;;;8.73;;
18651;SDS011;9455;54.302;10.124;2024-03-22T00:36:17;16.97;;;9.33;;
18651;SDS011;9455;54.302;10.124;2024-03-22T00:38:43;19.63;;;9.43;;
18651;SDS011;9455;54.302;10.124;2024-03-22T00:41:10;20.87;;;9.77;;
18651;SDS011;9455;54.302;10.124;2024-03-22T00:43:35;32.47;;;10.27;;
18651;SDS011;9455;54.302;10.124;2024-03-22T00:46:02;28.20;;;9.90;;
18651;SDS011;9455;54.302;10.124;2024-03-22T00:48:28;20.20;;;10.03;;
18651;SDS011;9455;54.302;10.124;2024-03-22T00:50:55;22.37;;;10.03;;
18651;SDS011;9455;54.302;10.124;2024-03-22T00:53:22;22.60;;;9.83;;
18651;SDS011;9455;54.302;10.124;2024-03-22T00:55:48;25.80;;;11.03;;
18651;SDS011;9455;54.302;10.124;2024-03-22T00:58:16;28.10;;;10.57;;
18651;SDS011;9455;54.302;10.124;2024-03-22T01:00:44;23.23;;;9.97;;
18651;SDS011;9455;54.302;10.124;2024-03-22T01:03:10;22.53;;;10.30;;
18651;SDS011;9455;54.302;10.124;2024-03-22T01:05:36;23.53;;;10.50;;
18651;SDS011;9455;54.302;10.124;2024-03-22T01:08:02;26.83;;;12.07;;
18651;SDS011;9455;54.302;10.124;2024-03-22T01:10:32;23.20;;;10.60;;
18651;SDS011;9455;54.302;10.124;2024-03-22T01:12:58;22.20;;;10.80;;
18651;SDS011;9455;54.302;10.124;2024-03-22T01:15:25;18.97;;;10.23;;
18651;SDS011;9455;54.302;10.124;2024-03-22T01:17:50;23.23;;;11.37;;
18651;SDS011;9455;54.302;10.124;2024-03-22T01:20:17;26.57;;;11.43;;
18651;SDS011;9455;54.302;10.124;2024-03-22T01:22:42;29.80;;;11.27;;
18651;SDS011;9455;54.302;10.124;2024-03-22T01:25:09;26.57;;;11.37;;
18651;SDS011;9455;54.302;10.124;2024-03-22T01:27:36;26.40;;;12.37;;
18651;SDS011;9455;54.302;10.124;2024-03-22T01:30:03;28.03;;;10.90;;
18651;SDS011;9455;54.302;10.124;2024-03-22T01:32:30;23.30;;;11.00;;
18651;SDS011;9455;54.302;10.124;2024-03-22T01:35:00;26.60;;;11.23;;
18651;SDS011;9455;54.302;10.124;2024-03-22T01:37:25;27.70;;;11.73;;
18651;SDS011;9455;54.302;10.124;2024-03-22T01:39:52;27.37;;;11.53;;
18651;SDS011;9455;54.302;10.124;2024-03-22T01:42:18;30.33;;;12.67;;
18651;SDS011;9455;54.302;10.124;2024-03-22T01:44:46;37.10;;;13.07;;
18651;SDS011;9455;54.302;10.124;2024-03-22T01:47:11;35.37;;;12.83;;
18651;SDS011;9455;54.302;10.124;2024-03-22T01:49:38;28.17;;;11.53;;
18651;SDS011;9455;54.302;10.124;2024-03-22T01:52:04;30.13;;;12.10;;
18651;SDS011;9455;54.302;10.124;2024-03-22T01:54:32;30.33;;;12.80;;
18651;SDS011;9455;54.302;10.124;2024-03-22T01:56:58;29.87;;;12.53;;
18651;SDS011;9455;54.302;10.124;2024-03-22T01:59:25;36.00;;;12.60;;
18651;SDS011;9455;54.302;10.124;2024-03-22T02:01:52;33.27;;;13.13;;
18651;SDS011;9455;54.302;10.124;2024-03-22T02:04:19;35.83;;;13.73;;
18651;SDS011;9455;54.302;10.124;2024-03-22T02:06:45;29.13;;;12.90;;
18651;SDS011;9455;54.302;10.124;2024-03-22T02:09:11;31.03;;;13.47;;
18651;SDS011;9455;54.302;10.124;2024-03-22T02:11:37;39.10;;;14.63;;
18651;SDS011;9455;54.302;10.124;2024-03-22T02:14:06;32.47;;;14.63;;
18651;SDS011;9455;54.302;10.124;2024-03-22T02:16:31;31.77;;;14.40;;
18651;SDS011;9455;54.302;10.124;2024-03-22T02:18:59;37.77;;;14.47;;
18651;SDS011;9455;54.302;10.124;2024-03-22T02:21:25;29.50;;;13.80;;
18651;SDS011;9455;54.302;10.124;2024-03-22T02:23:53;35.77;;;14.23;;
18651;SDS011;9455;54.302;10.124;2024-03-22T02:26:19;34.67;;;14.97;;
18651;SDS011;9455;54.302;10.124;2024-03-22T02:28:45;37.43;;;14.33;;
18651;SDS011;9455;54.302;10.124;2024-03-22T02:31:11;33.97;;;13.60;;
18651;SDS011;9455;54.302;10.124;2024-03-22T02:33:37;31.80;;;13.80;;
18651;SDS011;9455;54.302;10.124;2024-03-22T02:36:04;35.47;;;14.37;;
18651;SDS011;9455;54.302;10.124;2024-03-22T02:38:31;33.87;;;14.47;;
18651;SDS011;9455;54.302;10.124;2024-03-22T02:40:58;44.00;;;16.30;;
18651;SDS011;9455;54.302;10.124;2024-03-22T02:43:25;32.20;;;14.97;;
18651;SDS011;9455;54.302;10.124;2024-03-22T02:45:51;36.80;;;15.23;;
18651;SDS011;9455;54.302;10.124;2024-03-22T02:48:17;38.23;;;16.03;;
18651;SDS011;9455;54.302;10.124;2024-03-22T02:50:43;32.10;;;14.00;;
18651;SDS011;9455;54.302;10.124;2024-03-22T02:53:10;47.57;;;16.30;;
18651;SDS011;9455;54.302;10.124;2024-03-22T02:55:36;35.73;;;15.47;;
18651;SDS011;9455;54.302;10.124;2024-03-22T02:58:05;39.33;;;15.10;;
18651;SDS011;9455;54.302;10.124;2024-03-22T03:00:31;39.53;;;15.70;;
18651;SDS011;9455;54.302;10.124;2024-03-22T03:02:58;41.53;;;17.20;;
18651;SDS011;9455;54.302;10.124;2024-03-22T03:05:24;42.20;;;17.07;;
18651;SDS011;9455;54.302;10.124;2024-03-22T03:07:51;38.53;;;15.47;;
18651;SDS011;9455;54.302;10.124;2024-03-22T03:10:17;39.63;;;16.63;;
18651;SDS011;9455;54.302;10.124;2024-03-22T03:12:43;36.47;;;16.13;;
18651;SDS011;9455;54.302;10.124;2024-03-22T03:15:10;43.33;;;16.80;;
18651;SDS011;9455;54.302;10.124;2024-03-22T03:17:37;41.40;;;16.60;;
18651;SDS011;9455;54.302;10.124;2024-03-22T03:20:03;42.87;;;17.93;;
18651;SDS011;9455;54.302;10.124;2024-03-22T03:22:34;42.33;;;16.53;;
18651;SDS011;9455;54.302;10.124;2024-03-22T03:25:00;42.23;;;16.93;;
18651;SDS011;9455;54.302;10.124;2024-03-22T03:27:27;43.17;;;16.23;;
18651;SDS011;9455;54.302;10.124;2024-03-22T03:29:52;39.10;;;17.30;;
18651;SDS011;9455;54.302;10.124;2024-03-22T03:32:20;39.40;;;15.60;;
18651;SDS011;9455;54.302;10.124;2024-03-22T03:34:46;50.73;;;18.60;;
18651;SDS011;9455;54.302;10.124;2024-03-22T03:37:13;39.80;;;16.77;;
18651;SDS011;9455;54.302;10.124;2024-03-22T03:39:39;35.97;;;15.10;;
18651;SDS011;9455;54.302;10.124;2024-03-22T03:42:06;45.63;;;16.47;;
18651;SDS011;9455;54.302;10.124;2024-03-22T03:44:32;51.23;;;19.17;;
18651;SDS011;9455;54.302;10.124;2024-03-22T03:46:59;36.40;;;15.87;;
18651;SDS011;9455;54.302;10.124;2024-03-22T03:49:26;48.33;;;17.70;;
18651;SDS011;9455;54.302;10.124;2024-03-22T03:51:53;41.33;;;17.53;;
18651;SDS011;9455;54.302;10.124;2024-03-22T03:54:19;39.97;;;17.40;;
18651;SDS011;9455;54.302;10.124;2024-03-22T03:56:45;47.23;;;17.27;;
18651;SDS011;9455;54.302;10.124;2024-03-22T03:59:11;45.33;;;17.83;;
18651;SDS011;9455;54.302;10.124;2024-03-22T04:01:37;38.30;;;16.33;;
18651;SDS011;9455;54.302;10.124;2024-03-22T04:04:03;40.73;;;16.67;;
18651;SDS011;9455;54.302;10.124;2024-03-22T04:06:31;42.43;;;17.23;;
18651;SDS011;9455;54.302;10.124;2024-03-22T04:08:57;41.13;;;17.23;;
18651;SDS011;9455;54.302;10.124;2024-03-22T04:11:24;47.30;;;17.97;;
18651;SDS011;9455;54.302;10.124;2024-03-22T04:13:50;42.10;;;16.93;;
18651;SDS011;9455;54.302;10.124;2024-03-22T04:16:16;38.60;;;16.70;;
18651;SDS011;9455;54.302;10.124;2024-03-22T04:18:42;38.30;;;17.10;;
18651;SDS011;9455;54.302;10.124;2024-03-22T04:21:08;42.23;;;18.30;;
18651;SDS011;9455;54.302;10.124;2024-03-22T04:23:35;49.27;;;18.70;;
18651;SDS011;9455;54.302;10.124;2024-03-22T04:26:02;39.33;;;17.67;;
18651;SDS011;9455;54.302;10.124;2024-03-22T04:28:28;46.67;;;17.53;;
18651;SDS011;9455;54.302;10.124;2024-03-22T04:30:56;45.77;;;17.27;;
18651;SDS011;9455;54.302;10.124;2024-03-22T04:33:25;43.77;;;18.00;;
18651;SDS011;9455;54.302;10.124;2024-03-22T04:35:51;40.20;;;17.50;;
18651;SDS011;9455;54.302;10.124;2024-03-22T04:38:18;46.37;;;18.00;;
18651;SDS011;9455;54.302;10.124;2024-03-22T04:40:46;41.30;;;17.10;;
18651;SDS011;9455;54.302;10.124;2024-03-22T04:43:14;42.23;;;17.63;;
18651;SDS011;9455;54.302;10.124;2024-03-22T04:45:41;49.20;;;18.37;;
18651;SDS011;9455;54.302;10.124;2024-03-22T04:48:08;45.70;;;18.03;;
18651;SDS011;9455;54.302;10.124;2024-03-22T04:50:34;44.57;;;18.63;;
18651;SDS011;9455;54.302;10.124;2024-03-22T04:53:01;49.00;;;18.17;;
18651;SDS011;9455;54.302;10.124;2024-03-22T04:55:27;43.57;;;18.27;;
18651;SDS011;9455;54.302;10.124;2024-03-22T04:57:55;46.23;;;18.73;;
18651;SDS011;9455;54.302;10.124;2024-03-22T05:00:20;46.83;;;18.90;;
18651;SDS011;9455;54.302;10.124;2024-03-22T05:02:47;44.43;;;19.27;;
18651;SDS011;9455;54.302;10.124;2024-03-22T05:05:13;48.53;;;19.37;;
18651;SDS011;9455;54.302;10.124;2024-03-22T05:07:40;46.90;;;19.60;;
18651;SDS011;9455;54.302;10.124;2024-03-22T05:10:06;51.07;;;19.23;;
18651;SDS011;9455;54.302;10.124;2024-03-22T05:12:34;47.13;;;18.97;;
18651;SDS011;9455;54.302;10.124;2024-03-22T05:15:01;52.83;;;19.40;;
18651;SDS011;9455;54.302;10.124;2024-03-22T05:17:28;59.00;;;21.17;;
18651;SDS011;9455;54.302;10.124;2024-03-22T05:19:54;52.70;;;20.77;;
18651;SDS011;9455;54.302;10.124;2024-03-22T05:22:21;53.10;;;18.17;;
18651;SDS011;9455;54.302;10.124;2024-03-22T05:24:47;48.27;;;19.30;;
18651;SDS011;9455;54.302;10.124;2024-03-22T05:27:13;49.70;;;19.67;;
18651;SDS011;9455;54.302;10.124;2024-03-22T05:29:39;51.40;;;19.30;;
18651;SDS011;9455;54.302;10.124;2024-03-22T05:32:07;50.13;;;20.10;;
18651;SDS011;9455;54.302;10.124;2024-03-22T05:34:33;50.73;;;18.90;;
18651;SDS011;9455;54.302;10.124;2024-03-22T05:37:00;52.63;;;20.73;;
18651;SDS011;9455;54.302;10.124;2024-03-22T05:39:26;57.30;;;21.13;;
18651;SDS011;9455;54.302;10.124;2024-03-22T05:41:52;49.13;;;21.17;;
18651;SDS011;9455;54.302;10.124;2024-03-22T05:44:19;54.23;;;22.20;;
18651;SDS011;9455;54.302;10.124;2024-03-22T05:46:46;54.17;;;22.20;;
18651;SDS011;9455;54.302;10.124;2024-03-22T05:49:13;55.37;;;20.87;;
18651;SDS011;9455;54.302;10.124;2024-03-22T05:51:40;56.17;;;21.67;;
18651;SDS011;9455;54.302;10.124;2024-03-22T05:54:06;65.27;;;23.73;;
18651;SDS011;9455;54.302;10.124;2024-03-22T05:56:32;62.40;;;23.67;;
18651;SDS011;9455;54.302;10.124;2024-03-22T05:58:59;63.80;;;23.07;;
18651;SDS011;9455;54.302;10.124;2024-03-22T06:01:25;60.10;;;23.20;;
18651;SDS011;9455;54.302;10.124;2024-03-22T06:03:51;66.13;;;22.50;;
18651;SDS011;9455;54.302;10.124;2024-03-22T06:06:18;63.83;;;22.77;;
18651;SDS011;9455;54.302;10.124;2024-03-22T06:08:47;59.63;;;21.17;;
18651;SDS011;9455;54.302;10.124;2024-03-22T06:11:17;70.73;;;22.47;;
18651;SDS011;9455;54.302;10.124;2024-03-22T06:13:44;61.30;;;22.30;;
18651;SDS011;9455;54.302;10.124;2024-03-22T06:16:09;57.67;;;23.03;;
18651;SDS011;9455;54.302;10.124;2024-03-22T06:18:36;63.77;;;23.87;;
18651;SDS011;9455;54.302;10.124;2024-03-22T06:21:02;57.53;;;21.63;;
18651;SDS011;9455;54.302;10.124;2024-03-22T06:23:31;74.90;;;23.53;;
18651;SDS011;9455;54.302;10.124;2024-03-22T06:25:57;59.97;;;22.33;;
18651;SDS011;9455;54.302;10.124;2024-03-22T06:28:25;60.70;;;23.97;;
18651;SDS011;9455;54.302;10.124;2024-03-22T06:30:52;63.90;;;23.50;;
18651;SDS011;9455;54.302;10.124;2024-03-22T06:33:19;72.97;;;23.97;;
18651;SDS011;9455;54.302;10.124;2024-03-22T06:35:45;63.07;;;23.37;;
18651;SDS011;9455;54.302;10.124;2024-03-22T06:38:12;64.60;;;23.07;;
18651;SDS011;9455;54.302;10.124;2024-03-22T06:40:39;61.30;;;22.77;;
18651;SDS011;9455;54.302;10.124;2024-03-22T06:43:05;70.03;;;23.33;;
18651;SDS011;9455;54.302;10.124;2024-03-22T06:45:31;57.00;;;22.33;;
18651;SDS011;9455;54.302;10.124;2024-03-22T06:47:58;62.27;;;23.73;;
18651;SDS011;9455;54.302;10.124;2024-03-22T06:50:23;57.73;;;21.27;;
18651;SDS011;9455;54.302;10.124;2024-03-22T06:52:50;60.57;;;22.23;;
18651;SDS011;9455;54.302;10.124;2024-03-22T06:55:16;62.27;;;22.53;;
18651;SDS011;9455;54.302;10.124;2024-03-22T06:57:45;58.43;;;21.40;;
18651;SDS011;9455;54.302;10.124;2024-03-22T07:00:12;51.40;;;20.20;;
18651;SDS011;9455;54.302;10.124;2024-03-22T07:02:39;57.20;;;21.53;;
18651;SDS011;9455;54.302;10.124;2024-03-22T07:05:05;62.10;;;22.57;;
18651;SDS011;9455;54.302;10.124;2024-03-22T07:07:32;57.60;;;22.00;;
18651;SDS011;9455;54.302;10.124;2024-03-22T07:09:58;66.30;;;22.00;;
18651;SDS011;9455;54.302;10.124;2024-03-22T07:12:24;54.90;;;21.00;;
18651;SDS011;9455;54.302;10.124;2024-03-22T07:14:52;54.43;;;21.20;;
18651;SDS011;9455;54.302;10.124;2024-03-22T07:17:18;60.17;;;22.00;;
18651;SDS011;9455;54.302;10.124;2024-03-22T07:19:48;50.83;;;19.50;;
18651;SDS011;9455;54.302;10.124;2024-03-22T07:22:16;54.90;;;21.10;;
18651;SDS011;9455;54.302;10.124;2024-03-22T07:24:41;57.80;;;22.40;;
18651;SDS011;9455;54.302;10.124;2024-03-22T07:27:08;57.90;;;21.50;;
18651;SDS011;9455;54.302;10.124;2024-03-22T07:29:34;53.77;;;20.93;;
18651;SDS011;9455;54.302;10.124;2024-03-22T07:32:02;57.07;;;20.53;;
18651;SDS011;9455;54.302;10.124;2024-03-22T07:34:28;51.13;;;20.00;;
18651;SDS011;9455;54.302;10.124;2024-03-22T07:36:55;57.50;;;21.27;;
18651;SDS011;9455;54.302;10.124;2024-03-22T07:39:20;50.50;;;20.43;;
18651;SDS011;9455;54.302;10.124;2024-03-22T07:41:47;54.70;;;19.87;;
18651;SDS011;9455;54.302;10.124;2024-03-22T07:44:14;49.87;;;18.27;;
18651;SDS011;9455;54.302;10.124;2024-03-22T07:46:42;50.17;;;18.77;;
18651;SDS011;9455;54.302;10.124;2024-03-22T07:49:10;59.73;;;20.87;;
18651;SDS011;9455;54.302;10.124;2024-03-22T07:51:37;50.03;;;19.47;;
18651;SDS011;9455;54.302;10.124;2024-03-22T07:54:03;55.67;;;21.53;;
18651;SDS011;9455;54.302;10.124;2024-03-22T07:56:29;51.03;;;19.97;;
18651;SDS011;9455;54.302;10.124;2024-03-22T07:58:55;45.30;;;18.23;;
18651;SDS011;9455;54.302;10.124;2024-03-22T08:01:22;50.17;;;19.57;;
18651;SDS011;9455;54.302;10.124;2024-03-22T08:03:48;47.93;;;18.70;;
18651;SDS011;9455;54.302;10.124;2024-03-22T08:06:16;42.97;;;17.60;;
18651;SDS011;9455;54.302;10.124;2024-03-22T08:08:41;43.53;;;16.80;;
18651;SDS011;9455;54.302;10.124;2024-03-22T08:11:08;41.33;;;16.27;;
18651;SDS011;9455;54.302;10.124;2024-03-22T08:13:34;37.77;;;17.00;;
18651;SDS011;9455;54.302;10.124;2024-03-22T08:16:01;41.57;;;17.43;;
18651;SDS011;9455;54.302;10.124;2024-03-22T08:18:27;41.50;;;15.80;;
18651;SDS011;9455;54.302;10.124;2024-03-22T08:20:54;43.50;;;18.07;;
18651;SDS011;9455;54.302;10.124;2024-03-22T08:23:22;43.73;;;15.03;;
18651;SDS011;9455;54.302;10.124;2024-03-22T08:25:48;42.13;;;16.63;;
18651;SDS011;9455;54.302;10.124;2024-03-22T08:28:14;36.27;;;14.93;;
18651;SDS011;9455;54.302;10.124;2024-03-22T08:30:41;42.77;;;16.93;;
18651;SDS011;9455;54.302;10.124;2024-03-22T08:33:08;38.47;;;16.03;;
18651;SDS011;9455;54.302;10.124;2024-03-22T08:35:34;30.97;;;13.87;;
18651;SDS011;9455;54.302;10.124;2024-03-22T08:38:01;34.47;;;13.53;;
18651;SDS011;9455;54.302;10.124;2024-03-22T08:40:28;29.00;;;13.17;;
18651;SDS011;9455;54.302;10.124;2024-03-22T08:42:54;31.27;;;13.10;;
18651;SDS011;9455;54.302;10.124;2024-03-22T08:45:20;25.87;;;11.87;;
18651;SDS011;9455;54.302;10.124;2024-03-22T08:47:47;25.37;;;9.80;;
18651;SDS011;9455;54.302;10.124;2024-03-22T08:50:13;23.80;;;9.77;;
18651;SDS011;9455;54.302;10.124;2024-03-22T08:52:39;24.57;;;7.73;;
18651;SDS011;9455;54.302;10.124;2024-03-22T08:55:06;25.30;;;7.93;;
18651;SDS011;9455;54.302;10.124;2024-03-22T08:57:33;14.60;;;6.87;;
18651;SDS011;9455;54.302;10.124;2024-03-22T09:00:00;14.47;;;6.77;;
18651;SDS011;9455;54.302;10.124;2024-03-22T09:02:26;13.20;;;6.97;;
18651;SDS011;9455;54.302;10.124;2024-03-22T09:04:53;10.80;;;5.87;;
18651;SDS011;9455;54.302;10.124;2024-03-22T09:07:19;9.83;;;5.40;;
18651;SDS011;9455;54.302;10.124;2024-03-22T09:09:46;12.47;;;6.33;;
18651;SDS011;9455;54.302;10.124;2024-03-22T09:12:11;11.97;;;6.47;;
18651;SDS011;9455;54.302;10.124;2024-03-22T09:14:39;11.67;;;6.13;;
18651;SDS011;9455;54.302;10.124;2024-03-22T09:17:05;10.40;;;6.73;;
18651;SDS011;9455;54.302;10.124;2024-03-22T09:19:32;9.20;;;5.87;;
18651;SDS011;9455;54.302;10.124;2024-03-22T09:21:57;8.77;;;5.80;;
18651;SDS011;9455;54.302;10.124;2024-03-22T09:24:24;9.73;;;5.50;;
18651;SDS011;9455;54.302;10.124;2024-03-22T09:26:50;13.07;;;5.67;;
18651;SDS011;9455;54.302;10.124;2024-03-22T09:29:16;7.07;;;5.33;;
18651;SDS011;9455;54.302;10.124;2024-03-22T09:31:44;7.87;;;4.90;;
18651;SDS011;9455;54.302;10.124;2024-03-22T09:34:11;8.57;;;4.90;;
18651;SDS011;9455;54.302;10.124;2024-03-22T09:36:37;9.07;;;5.27;;
18651;SDS011;9455;54.302;10.124;2024-03-22T09:39:04;10.03;;;4.60;;
18651;SDS011;9455;54.302;10.124;2024-03-22T09:41:31;6.50;;;3.97;;
18651;SDS011;9455;54.302;10.124;2024-03-22T09:43:59;5.57;;;4.17;;
18651;SDS011;9455;54.302;10.124;2024-03-22T09:46:27;6.23;;;4.23;;
18651;SDS011;9455;54.302;10.124;2024-03-22T09:48:56;4.90;;;4.10;;
18651;SDS011;9455;54.302;10.124;2024-03-22T09:51:24;6.17;;;3.87;;
18651;SDS011;9455;54.302;10.124;2024-03-22T09:53:51;5.57;;;3.83;;
18651;SDS011;9455;54.302;10.124;2024-03-22T09:56:18;6.00;;;3.80;;
18651;SDS011;9455;54.302;10.124;2024-03-22T09:58:47;6.73;;;4.00;;
18651;SDS011;9455;54.302;10.124;2024-03-22T10:01:13;7.13;;;3.90;;
18651;SDS011;9455;54.302;10.124;2024-03-22T10:03:40;4.40;;;3.57;;
18651;SDS011;9455;54.302;10.124;2024-03-22T10:06:07;7.70;;;4.13;;
18651;SDS011;9455;54.302;10.124;2024-03-22T10:08:34;7.27;;;4.13;;
18651;SDS011;9455;54.302;10.124;2024-03-22T10:11:01;6.50;;;3.77;;
18651;SDS011;9455;54.302;10.124;2024-03-22T10:13:28;6.37;;;4.07;;
18651;SDS011;9455;54.302;10.124;2024-03-22T10:15:54;5.67;;;3.50;;
18651;SDS011;9455;54.302;10.124;2024-03-22T10:18:21;13.67;;;4.77;;
18651;SDS011;9455;54.302;10.124;2024-03-22T10:20:47;16.00;;;5.07;;
18651;SDS011;9455;54.302;10.124;2024-03-22T10:23:26;10.03;;;4.70;;
18651;SDS011;9455;54.302;10.124;2024-03-22T10:25:52;5.33;;;3.93;;
18651;SDS011;9455;54.302;10.124;2024-03-22T10:28:18;6.93;;;4.03;;
18651;SDS011;9455;54.302;10.124;2024-03-22T10:30:44;7.90;;;4.20;;
18651;SDS011;9455;54.302;10.124;2024-03-22T10:33:13;7.63;;;4.63;;
18651;SDS011;9455;54.302;10.124;2024-03-22T10:35:40;11.90;;;4.50;;
18651;SDS011;9455;54.302;10.124;2024-03-22T10:38:07;9.27;;;4.73;;
18651;SDS011;9455;54.302;10.124;2024-03-22T10:40:37;11.50;;;5.53;;
18651;SDS011;9455;54.302;10.124;2024-03-22T10:43:05;9.37;;;5.07;;
18651;SDS011;9455;54.302;10.124;2024-03-22T10:45:31;12.97;;;5.23;;
18651;SDS011;9455;54.302;10.124;2024-03-22T10:47:58;10.33;;;5.20;;
18651;SDS011;9455;54.302;10.124;2024-03-22T10:50:27;11.13;;;4.80;;
18651;SDS011;9455;54.302;10.124;2024-03-22T10:52:56;8.23;;;4.70;;
18651;SDS011;9455;54.302;10.124;2024-03-22T10:55:27;9.53;;;5.03;;
18651;SDS011;9455;54.302;10.124;2024-03-22T10:57:58;10.47;;;4.87;;
18651;SDS011;9455;54.302;10.124;2024-03-22T11:00:27;8.83;;;5.47;;
18651;SDS011;9455;54.302;10.124;2024-03-22T11:02:54;11.50;;;5.23;;
18651;SDS011;9455;54.302;10.124;2024-03-22T11:05:21;9.83;;;5.90;;
18651;SDS011;9455;54.302;10.124;2024-03-22T11:07:57;12.07;;;5.60;;
18651;SDS011;9455;54.302;10.124;2024-03-22T11:10:25;12.70;;;5.37;;
18651;SDS011;9455;54.302;10.124;2024-03-22T11:12:55;12.83;;;4.73;;
18651;SDS011;9455;54.302;10.124;2024-03-22T11:15:23;10.63;;;5.50;;
18651;SDS011;9455;54.302;10.124;2024-03-22T11:17:50;6.17;;;4.30;;
18651;SDS011;9455;54.302;10.124;2024-03-22T11:20:16;6.30;;;4.37;;
18651;SDS011;9455;54.302;10.124;2024-03-22T11:22:43;7.43;;;4.47;;
18651;SDS011;9455;54.302;10.124;2024-03-22T11:25:09;7.03;;;4.57;;
18651;SDS011;9455;54.302;10.124;2024-03-22T11:27:36;6.50;;;3.33;;
18651;SDS011;9455;54.302;10.124;2024-03-22T11:30:02;7.10;;;4.40;;
18651;SDS011;9455;54.302;10.124;2024-03-22T11:32:31;4.30;;;3.90;;
18651;SDS011;9455;54.302;10.124;2024-03-22T11:34:59;6.57;;;4.27;;
18651;SDS011;9455;54.302;10.124;2024-03-22T11:37:26;6.40;;;3.80;;
18651;SDS011;9455;54.302;10.124;2024-03-22T11:39:52;4.07;;;3.73;;
18651;SDS011;9455;54.302;10.124;2024-03-22T11:42:20;3.70;;;3.23;;
18651;SDS011;9455;54.302;10.124;2024-03-22T11:44:46;3.20;;;3.00;;
18651;SDS011;9455;54.302;10.124;2024-03-22T11:47:14;6.60;;;3.80;;
18651;SDS011;9455;54.302;10.124;2024-03-22T11:49:41;5.10;;;3.63;;
18651;SDS011;9455;54.302;10.124;2024-03-22T11:52:08;5.63;;;2.90;;
18651;SDS011;9455;54.302;10.124;2024-03-22T11:54:34;5.93;;;3.27;;
18651;SDS011;9455;54.302;10.124;2024-03-22T11:57:02;7.77;;;3.33;;
18651;SDS011;9455;54.302;10.124;2024-03-22T11:59:29;5.13;;;2.97;;
18651;SDS011;9455;54.302;10.124;2024-03-22T12:01:56;4.60;;;2.90;;
18651;SDS011;9455;54.302;10.124;2024-03-22T12:04:22;4.17;;;2.73;;
18651;SDS011;9455;54.302;10.124;2024-03-22T12:06:50;3.90;;;2.80;;
18651;SDS011;9455;54.302;10.124;2024-03-22T12:09:15;2.90;;;2.70;;
18651;SDS011;9455;54.302;10.124;2024-03-22T12:11:42;4.07;;;2.90;;
18651;SDS011;9455;54.302;10.124;2024-03-22T12:14:08;5.47;;;3.13;;
18651;SDS011;9455;54.302;10.124;2024-03-22T12:16:35;2.87;;;2.60;;
18651;SDS011;9455;54.302;10.124;2024-03-22T12:19:01;4.20;;;2.93;;
18651;SDS011;9455;54.302;10.124;2024-03-22T12:21:28;4.83;;;3.40;;
18651;SDS011;9455;54.302;10.124;2024-03-22T12:23:55;4.43;;;3.13;;
18651;SDS011;9455;54.302;10.124;2024-03-22T12:26:22;3.30;;;2.80;;
18651;SDS011;9455;54.302;10.124;2024-03-22T12:28:47;4.70;;;2.33;;
18651;SDS011;9455;54.302;10.124;2024-03-22T12:31:16;4.13;;;2.30;;
18651;SDS011;9455;54.302;10.124;2024-03-22T12:33:42;5.17;;;3.27;;
18651;SDS011;9455;54.302;10.124;2024-03-22T12:36:09;6.20;;;2.77;;
18651;SDS011;9455;54.302;10.124;2024-03-22T12:38:34;2.10;;;2.00;;
18651;SDS011;9455;54.302;10.124;2024-03-22T12:41:02;4.43;;;2.63;;
18651;SDS011;9455;54.302;10.124;2024-03-22T12:43:28;7.90;;;3.37;;
18651;SDS011;9455;54.302;10.124;2024-03-22T12:45:55;4.43;;;2.40;;
18651;SDS011;9455;54.302;10.124;2024-03-22T12:48:21;8.20;;;2.97;;
18651;SDS011;9455;54.302;10.124;2024-03-22T12:50:47;3.23;;;2.13;;
18651;SDS011;9455;54.302;10.124;2024-03-22T12:53:13;4.53;;;2.63;;
18651;SDS011;9455;54.302;10.124;2024-03-22T12:55:40;4.50;;;2.23;;
18651;SDS011;9455;54.302;10.124;2024-03-22T12:58:07;8.00;;;2.53;;
18651;SDS011;9455;54.302;10.124;2024-03-22T13:00:33;3.73;;;2.30;;
18651;SDS011;9455;54.302;10.124;2024-03-22T13:02:59;4.77;;;2.23;;
18651;SDS011;9455;54.302;10.124;2024-03-22T13:05:26;13.53;;;2.90;;
18651;SDS011;9455;54.302;10.124;2024-03-22T13:07:52;10.73;;;2.67;;
18651;SDS011;9455;54.302;10.124;2024-03-22T13:10:19;11.03;;;2.60;;
18651;SDS011;9455;54.302;10.124;2024-03-22T13:12:44;8.50;;;3.33;;
18651;SDS011;9455;54.302;10.124;2024-03-22T13:15:12;14.97;;;2.87;;
18651;SDS011;9455;54.302;10.124;2024-03-22T13:17:38;10.67;;;2.37;;
18651;SDS011;9455;54.302;10.124;2024-03-22T13:20:05;10.13;;;2.50;;
18651;SDS011;9455;54.302;10.124;2024-03-22T13:22:35;12.80;;;3.13;;
18651;SDS011;9455;54.302;10.124;2024-03-22T13:25:03;9.80;;;3.77;;
18651;SDS011;9455;54.302;10.124;2024-03-22T13:27:32;19.60;;;2.60;;
18651;SDS011;9455;54.302;10.124;2024-03-22T13:29:59;14.87;;;4.23;;
18651;SDS011;9455;54.302;10.124;2024-03-22T13:32:26;17.57;;;3.00;;
18651;SDS011;9455;54.302;10.124;2024-03-22T13:34:52;13.10;;;3.53;;
18651;SDS011;9455;54.302;10.124;2024-03-22T13:37:18;20.10;;;3.27;;
18651;SDS011;9455;54.302;10.124;2024-03-22T13:39:47;16.93;;;3.57;;
18651;SDS011;9455;54.302;10.124;2024-03-22T13:42:14;16.60;;;3.90;;
18651;SDS011;9455;54.302;10.124;2024-03-22T13:44:40;19.23;;;3.50;;
18651;SDS011;9455;54.302;10.124;2024-03-22T13:47:06;24.80;;;5.23;;
18651;SDS011;9455;54.302;10.124;2024-03-22T13:49:34;15.70;;;3.80;;
18651;SDS011;9455;54.302;10.124;2024-03-22T13:52:00;14.33;;;3.07;;
18651;SDS011;9455;54.302;10.124;2024-03-22T13:54:27;17.93;;;2.87;;
18651;SDS011;9455;54.302;10.124;2024-03-22T13:56:54;25.20;;;3.87;;
18651;SDS011;9455;54.302;10.124;2024-03-22T13:59:20;15.63;;;3.20;;
18651;SDS011;9455;54.302;10.124;2024-03-22T14:01:46;16.87;;;3.90;;
18651;SDS011;9455;54.302;10.124;2024-03-22T14:04:13;14.90;;;3.80;;
18651;SDS011;9455;54.302;10.124;2024-03-22T14:06:41;17.27;;;3.47;;
18651;SDS011;9455;54.302;10.124;2024-03-22T14:09:08;17.63;;;2.67;;
18651;SDS011;9455;54.302;10.124;2024-03-22T14:11:35;21.07;;;3.33;;
18651;SDS011;9455;54.302;10.124;2024-03-22T14:14:02;19.67;;;2.93;;
18651;SDS011;9455;54.302;10.124;2024-03-22T14:16:28;23.20;;;4.13;;
18651;SDS011;9455;54.302;10.124;2024-03-22T14:18:55;14.53;;;2.93;;
18651;SDS011;9455;54.302;10.124;2024-03-22T14:21:22;21.13;;;5.03;;
18651;SDS011;9455;54.302;10.124;2024-03-22T14:23:49;18.80;;;3.40;;
18651;SDS011;9455;54.302;10.124;2024-03-22T14:26:16;20.53;;;3.63;;
18651;SDS011;9455;54.302;10.124;2024-03-22T14:28:42;27.10;;;3.63;;